Time;durP1;ratioP1;P1;durP2;ratioP2;P2;SDS_P1;SDS_P2;PMS_P1;PMS_P2;Temp;Humidity;BMP_temperature;BMP_pressure;BME280_temperature;BME280_humidity;BME280_pressure;Samples;Min_cycle;Max_cycle;Signal;HPM_P1;HPM_P2
2022/09/17 00:01:14;;;;;;;4.10;1.30;;;;;;;12.64;66.21;101399.53;5055408;28;20040;-60
2022/09/17 00:03:42;;;;;;;4.82;1.40;;;;;;;12.41;67.19;101401.41;5079143;28;20044;-59
2022/09/17 00:06:11;;;;;;;3.78;1.42;;;;;;;12.56;67.72;101408.53;5081388;28;20052;-60
2022/09/17 00:08:40;;;;;;;4.03;1.35;;;;;;;12.73;66.66;101405.94;5073368;28;20044;-60
2022/09/17 00:11:20;;;;;;;2.70;1.20;;;;;;;12.38;66.88;101410.28;5072237;28;20044;-60
2022/09/17 00:13:47;;;;;;;;;;;;;;;12.51;69.10;101403.94;5061537;28;20514;-59
2022/09/17 00:16:22;;;;;;;3.10;1.17;;;;;;;12.70;67.21;101410.16;5082779;28;20320;-59
2022/09/17 00:18:49;;;;;;;5.25;1.60;;;;;;;13.05;65.62;101414.06;5077773;28;20048;-59
2022/09/17 00:21:18;;;;;;;5.30;1.50;;;;;;;12.91;69.11;101407.75;5076494;28;20052;-61
2022/09/17 00:23:45;;;;;;;4.60;1.50;;;;;;;12.40;66.36;101408.88;5078469;28;20083;-60
2022/09/17 00:26:13;;;;;;;3.85;1.55;;;;;;;13.07;72.84;101403.53;5078374;28;20048;-60
2022/09/17 00:28:44;;;;;;;5.95;1.70;;;;;;;13.02;67.45;101414.72;5077873;28;20056;-60
2022/09/17 00:31:11;;;;;;;5.28;1.20;;;;;;;12.61;66.46;101417.53;5076878;28;20056;-60
2022/09/17 00:33:38;;;;;;;5.10;1.35;;;;;;;12.29;67.33;101415.72;5078645;28;20052;-62
2022/09/17 00:36:06;;;;;;;4.40;1.10;;;;;;;12.59;66.63;101410.69;5082691;28;20060;-60
2022/09/17 00:38:33;;;;;;;4.07;1.40;;;;;;;12.46;66.71;101413.16;5080637;28;20051;-60
2022/09/17 00:41:02;;;;;;;5.45;1.35;;;;;;;12.37;68.25;101419.72;5078448;28;20415;-61
2022/09/17 00:43:33;;;;;;;4.95;1.45;;;;;;;12.28;67.77;101421.56;5078167;28;20049;-60
2022/09/17 00:46:03;;;;;;;5.68;1.30;;;;;;;12.31;68.54;101416.25;5086025;28;20411;-59
2022/09/17 00:48:30;;;;;;;7.18;1.40;;;;;;;13.03;68.11;101414.38;5076404;28;20052;-61
2022/09/17 00:51:00;;;;;;;5.68;1.20;;;;;;;12.72;66.76;101416.19;5075912;28;20052;-59
2022/09/17 00:53:27;;;;;;;3.53;1.08;;;;;;;12.77;67.22;101406.97;5077029;28;20036;-62
2022/09/17 00:56:04;;;;;;;5.32;1.40;;;;;;;12.57;66.62;101410.19;5077256;28;20052;-59
2022/09/17 00:58:32;;;;;;;4.32;1.33;;;;;;;12.45;67.87;101413.47;5074335;28;20139;-62
2022/09/17 01:01:06;;;;;;;5.10;1.30;;;;;;;12.48;69.44;101412.03;5064595;28;20048;-60
2022/09/17 01:03:34;;;;;;;6.45;1.20;;;;;;;12.88;66.19;101411.97;5079470;28;20041;-61
2022/09/17 01:06:19;;;;;;;5.38;1.15;;;;;;;13.12;67.62;101411.69;5085852;28;20049;-60
2022/09/17 01:09:14;;;;;;;5.63;1.23;;;;;;;13.53;70.74;101418.66;5079570;28;20055;-58
2022/09/17 01:11:54;;;;;;;6.80;1.38;;;;;;;12.84;66.99;101401.81;5084919;28;20044;-60
2022/09/17 01:14:47;;;;;;;4.60;1.35;;;;;;;12.82;67.24;101415.97;5064525;28;20636;-60
2022/09/17 01:17:39;;;;;;;4.68;1.27;;;;;;;12.76;65.65;101422.72;5075053;28;20045;-60
2022/09/17 01:20:30;;;;;;;4.90;1.38;;;;;;;12.55;69.56;101416.03;5087046;28;20047;-60
2022/09/17 01:23:06;;;;;;;9.65;1.92;;;;;;;12.45;66.73;101422.59;5077438;28;20049;-60
2022/09/17 01:26:05;;;;;;;4.75;1.00;;;;;;;12.38;68.86;101429.63;5074686;28;20056;-59
2022/09/17 01:28:57;;;;;;;5.72;1.40;;;;;;;12.60;66.34;101426.16;5048669;28;20064;-58
2022/09/17 01:31:34;;;;;;;5.32;1.30;;;;;;;12.21;67.33;101430.28;5072513;28;20456;-61
2022/09/17 01:34:32;;;;;;;5.88;1.85;;;;;;;12.32;68.88;101433.66;5064558;28;20059;-61
2022/09/17 01:37:11;;;;;;;7.47;1.58;;;;;;;13.10;73.57;101433.31;5081608;28;20520;-60
2022/09/17 01:39:47;;;;;;;5.53;1.38;;;;;;;12.73;65.03;101430.81;5083648;28;20380;-61
2022/09/17 01:42:30;;;;;;;10.10;1.15;;;;;;;12.36;66.63;101434.69;5091075;28;20059;-60
2022/09/17 01:45:06;;;;;;;3.83;1.15;;;;;;;12.81;65.68;101433.69;5083802;28;20044;-59
2022/09/17 01:47:36;;;;;;;5.30;1.27;;;;;;;12.20;66.77;101442.44;5074203;28;20052;-59
2022/09/17 01:50:07;;;;;;;6.15;1.40;;;;;;;12.38;66.64;101444.28;5078642;28;20510;-59
2022/09/17 01:52:36;;;;;;;6.78;1.30;;;;;;;11.86;67.16;101446.69;5047137;28;20616;-59
2022/09/17 01:55:07;;;;;;;5.93;1.83;;;;;;;12.52;69.45;101446.22;5055605;28;20048;-58
2022/09/17 01:57:37;;;;;;;8.23;1.33;;;;;;;11.97;67.44;101448.16;5076159;28;20052;-59
2022/09/17 02:00:09;;;;;;;8.65;2.17;;;;;;;11.93;67.71;101455.41;5083117;28;20040;-59
2022/09/17 02:02:44;;;;;;;6.15;1.52;;;;;;;11.74;68.93;101455.47;5089602;28;20056;-59
2022/09/17 02:05:17;;;;;;;8.63;1.27;;;;;;;11.75;68.95;101453.53;5072578;28;20052;-59
2022/09/17 02:07:49;;;;;;;8.52;1.63;;;;;;;11.77;69.17;101451.31;5075112;28;20052;-58
2022/09/17 02:10:19;;;;;;;9.07;1.38;;;;;;;12.37;72.62;101447.34;5073850;28;20419;-60
2022/09/17 02:12:56;;;;;;;5.10;1.25;;;;;;;12.50;67.05;101440.97;5075143;28;20068;-60
2022/09/17 02:15:27;;;;;;;9.35;1.75;;;;;;;12.20;67.20;101447.94;5082168;28;20056;-59
2022/09/17 02:17:58;;;;;;;7.97;1.33;;;;;;;11.91;68.50;101452.13;5041610;28;20087;-59
2022/09/17 02:20:37;;;;;;;7.60;1.55;;;;;;;11.74;69.15;101444.44;5060336;28;20052;-59
2022/09/17 02:23:10;;;;;;;6.75;1.60;;;;;;;11.54;69.46;101450.25;5074334;28;20495;-60
2022/09/17 02:25:43;;;;;;;10.90;1.38;;;;;;;11.44;70.49;101442.16;5105983;28;20044;-59
2022/09/17 02:28:24;;;;;;;8.88;1.33;;;;;;;11.51;71.20;101447.28;5073226;28;20407;-60
2022/09/17 02:30:51;;;;;;;3.60;1.10;;;;;;;11.67;70.44;101440.41;5080734;28;20059;-60
2022/09/17 02:33:19;;;;;;;4.50;1.17;;;;;;;11.87;69.42;101440.84;5075333;28;20360;-61
2022/09/17 02:35:46;;;;;;;9.55;1.40;;;;;;;11.67;70.33;101443.19;5085788;28;20053;-61
2022/09/17 02:38:21;;;;;;;8.13;1.67;;;;;;;11.91;68.82;101435.56;5073496;28;20075;-59
2022/09/17 02:40:53;;;;;;;10.43;1.25;;;;;;;11.63;68.57;101447.66;5090445;28;20111;-58
2022/09/17 02:43:47;;;;;;;10.32;1.63;;;;;;;11.80;71.03;101440.44;5074762;28;20064;-59
2022/09/17 02:46:53;;;;;;;5.85;1.10;;;;;;;12.09;70.02;101440.19;5081426;28;20052;-58
2022/09/17 02:49:28;;;;;;;7.13;1.38;;;;;;;11.93;67.37;101431.38;5075392;28;20052;-60
2022/09/17 02:51:55;;;;;;;7.75;2.00;;;;;;;11.51;69.04;101437.06;5072786;28;20605;-59
2022/09/17 02:54:24;;;;;;;13.77;1.50;;;;;;;11.97;72.79;101437.94;5075669;28;20506;-60
2022/09/17 02:57:04;;;;;;;11.50;1.57;;;;;;;12.40;73.29;101441.19;5073937;28;20048;-61
2022/09/17 02:59:40;;;;;;;6.43;1.58;;;;;;;12.97;66.39;101434.94;5086236;28;20049;-60
2022/09/17 03:02:13;;;;;;;8.18;1.20;;;;;;;12.02;67.46;101442.53;5059455;28;20048;-59
2022/09/17 03:04:41;;;;;;;5.53;1.48;;;;;;;11.77;68.11;101441.06;5073234;28;20052;-59
2022/09/17 03:07:10;;;;;;;6.15;1.33;;;;;;;12.16;68.32;101443.34;5074269;28;20063;-59
2022/09/17 03:09:39;;;;;;;6.97;1.77;;;;;;;12.25;68.25;101441.53;5071866;28;20067;-57
2022/09/17 03:12:06;;;;;;;6.00;1.50;;;;;;;12.38;68.90;101444.28;5073400;28;20037;-59
2022/09/17 03:14:33;;;;;;;6.30;1.20;;;;;;;12.32;71.03;101433.66;5073963;28;20048;-61
2022/09/17 03:17:00;;;;;;;6.13;1.45;;;;;;;12.10;67.51;101439.06;5076228;28;20060;-59
2022/09/17 03:19:28;;;;;;;6.97;1.50;;;;;;;12.57;68.28;101438.63;5062427;28;20521;-60
2022/09/17 03:21:55;;;;;;;7.95;1.50;;;;;;;12.53;69.49;101437.63;5086550;28;20044;-60
2022/09/17 03:24:22;;;;;;;5.03;1.20;;;;;;;11.99;67.59;101441.22;5075902;28;20052;-58
2022/09/17 03:26:49;;;;;;;6.68;1.30;;;;;;;12.03;69.73;101453.25;5071408;28;20048;-57
2022/09/17 03:29:17;;;;;;;5.60;1.25;;;;;;;12.24;67.74;101445.41;5074709;28;20064;-59
2022/09/17 03:31:44;;;;;;;5.90;1.50;;;;;;;11.70;68.58;101453.63;5073106;28;20053;-59
2022/09/17 03:34:11;;;;;;;7.90;1.55;;;;;;;11.53;69.49;101447.81;5084788;28;20622;-60
2022/09/17 03:36:39;;;;;;;6.25;1.38;;;;;;;11.32;70.54;101450.91;5077643;28;20041;-59
2022/09/17 03:39:06;;;;;;;4.45;1.20;;;;;;;11.68;70.11;101451.16;5073665;28;20052;-59
2022/09/17 03:41:36;;;;;;;5.13;1.15;;;;;;;11.57;70.36;101446.91;5073660;28;20045;-59
2022/09/17 03:44:03;;;;;;;3.95;1.10;;;;;;;12.15;73.32;101450.81;5056649;28;20061;-58
2022/09/17 03:46:31;;;;;;;10.93;1.58;;;;;;;12.02;68.42;101448.88;5071139;28;20746;-59
2022/09/17 03:48:58;;;;;;;5.35;1.38;;;;;;;12.36;72.84;101445.72;5081363;28;20414;-60
2022/09/17 03:51:25;;;;;;;3.35;0.93;;;;;;;12.92;72.26;101443.38;5086948;28;20047;-57
2022/09/17 03:53:53;;;;;;;6.93;1.73;;;;;;;13.00;68.29;101448.19;5076920;28;20514;-61
2022/09/17 03:56:20;;;;;;;6.70;1.30;;;;;;;12.39;67.58;101458.91;5081759;28;20060;-59
2022/09/17 03:58:47;;;;;;;8.20;1.60;;;;;;;12.13;70.23;101457.78;5078067;28;20049;-59
2022/09/17 04:01:14;;;;;;;4.97;1.20;;;;;;;11.99;70.31;101462.47;5077349;28;20064;-59
2022/09/17 04:03:42;;;;;;;6.45;1.23;;;;;;;11.47;70.16;101466.41;5078509;28;20049;-58
2022/09/17 04:06:09;;;;;;;5.60;1.50;;;;;;;11.76;72.20;101457.94;5081197;28;20057;-59
2022/09/17 04:08:36;;;;;;;4.07;1.33;;;;;;;12.38;69.17;101460.03;5078875;28;20047;-58
2022/09/17 04:11:03;;;;;;;7.10;1.10;;;;;;;12.15;70.66;101464.63;5088724;28;20041;-59
2022/09/17 04:13:31;;;;;;;6.90;1.17;;;;;;;11.99;73.72;101468.00;5076485;28;20052;-60
2022/09/17 04:15:58;;;;;;;8.68;2.00;;;;;;;12.28;68.82;101469.34;5084641;28;20044;-60
2022/09/17 04:18:25;;;;;;;8.50;1.65;;;;;;;12.06;68.48;101468.41;5078900;28;20068;-60
2022/09/17 04:20:56;;;;;;;7.60;1.30;;;;;;;11.49;69.17;101475.19;5075481;28;20044;-60
2022/09/17 04:23:23;;;;;;;4.88;1.40;;;;;;;12.61;73.72;101470.06;5092129;28;20414;-59
2022/09/17 04:25:50;;;;;;;5.15;1.10;;;;;;;12.46;67.86;101473.16;5079314;28;20045;-60
2022/09/17 04:28:18;;;;;;;4.25;1.15;;;;;;;12.87;70.07;101481.38;5075411;28;20483;-59
2022/09/17 04:30:47;;;;;;;7.55;1.42;;;;;;;13.03;71.11;101477.16;5076519;28;20057;-60
2022/09/17 04:33:14;;;;;;;8.88;1.10;;;;;;;13.89;69.88;101479.47;5071944;28;20052;-61
2022/09/17 04:35:42;;;;;;;5.57;1.05;;;;;;;12.96;65.38;101479.50;5086038;28;20048;-56
2022/09/17 04:38:12;;;;;;;8.80;1.50;;;;;;;12.93;69.69;101483.72;5092327;28;20051;-62
2022/09/17 04:40:41;;;;;;;5.40;1.23;;;;;;;12.36;66.38;101490.72;5077193;28;20075;-61
2022/09/17 04:43:09;;;;;;;7.00;1.23;;;;;;;12.40;67.87;101494.53;5091434;28;20414;-60
2022/09/17 04:45:36;;;;;;;7.93;1.30;;;;;;;11.62;68.36;101495.66;5076551;28;20419;-61
2022/09/17 04:48:04;;;;;;;8.07;1.30;;;;;;;11.74;70.15;101488.59;5095808;28;20528;-59
2022/09/17 04:50:31;;;;;;;4.28;1.05;;;;;;;11.78;71.01;101486.88;5087051;28;20049;-59
2022/09/17 04:52:58;;;;;;;11.80;1.30;;;;;;;11.68;69.24;101489.00;5078175;28;20044;-60
2022/09/17 04:55:26;;;;;;;6.35;1.45;;;;;;;12.90;73.40;101486.31;5075894;28;20053;-60
2022/09/17 04:57:54;;;;;;;7.18;1.63;;;;;;;12.72;66.88;101488.06;5077964;28;20040;-60
2022/09/17 05:00:22;;;;;;;9.55;1.30;;;;;;;12.46;67.86;101498.00;5074130;28;20056;-59
2022/09/17 05:02:51;;;;;;;6.63;1.33;;;;;;;12.64;68.28;101491.53;5076999;28;20044;-59
2022/09/17 05:05:19;;;;;;;8.23;1.70;;;;;;;12.84;67.21;101491.13;5060141;28;20132;-61
2022/09/17 05:07:46;;;;;;;7.53;1.27;;;;;;;13.42;68.78;101493.97;5075895;28;20091;-59
2022/09/17 05:10:16;;;;;;;5.97;1.50;;;;;;;14.11;67.69;101492.47;5092060;28;20048;-60
2022/09/17 05:12:51;;;;;;;6.97;1.20;;;;;;;13.88;65.41;101493.66;5076689;28;20069;-60
2022/09/17 05:15:19;;;;;;;7.65;1.73;;;;;;;13.40;63.51;101499.00;5076050;28;20510;-61
2022/09/17 05:17:46;;;;;;;7.63;1.27;;;;;;;13.32;70.65;101495.00;5097864;28;20059;-59
2022/09/17 05:20:15;;;;;;;6.50;1.50;;;;;;;13.89;66.13;101500.81;5093403;28;20051;-59
2022/09/17 05:22:42;;;;;;;4.80;1.20;;;;;;;14.01;67.57;101501.03;5077634;28;20044;-60
2022/09/17 05:25:11;;;;;;;5.55;1.38;;;;;;;14.17;64.49;101502.28;5076649;28;20808;-59
2022/09/17 05:27:39;;;;;;;7.35;1.42;;;;;;;13.58;66.04;101509.09;5077277;28;20045;-59
2022/09/17 05:30:07;;;;;;;7.43;1.92;;;;;;;14.10;66.61;101513.00;5074462;28;20044;-59
2022/09/17 05:32:35;;;;;;;5.35;1.27;;;;;;;13.71;67.10;101508.19;5090886;28;20122;-59
2022/09/17 05:35:03;;;;;;;14.38;2.17;;;;;;;13.49;67.59;101511.75;5090379;28;20506;-61
2022/09/17 05:37:32;;;;;;;6.57;1.45;;;;;;;13.34;67.79;101514.91;5089727;28;20059;-59
2022/09/17 05:39:59;;;;;;;7.03;1.52;;;;;;;13.14;66.07;101512.59;5092445;28;20052;-61
2022/09/17 05:42:26;;;;;;;7.70;1.90;;;;;;;13.64;67.81;101505.03;5077215;28;20426;-60
2022/09/17 05:44:53;;;;;;;5.53;1.58;;;;;;;14.07;66.84;101506.13;5074305;28;20056;-59
2022/09/17 05:47:21;;;;;;;6.88;1.50;;;;;;;14.20;65.64;101504.41;5087142;28;20044;-60
2022/09/17 05:49:48;;;;;;;8.35;1.77;;;;;;;13.53;63.62;101506.41;5084448;28;20514;-59
2022/09/17 05:52:16;;;;;;;6.30;1.55;;;;;;;12.89;66.43;101504.84;5076429;28;20052;-53
2022/09/17 05:54:43;;;;;;;10.05;2.90;;;;;;;13.54;66.35;101511.66;5074846;28;20033;-53
2022/09/17 05:57:10;;;;;;;14.25;2.00;;;;;;;13.66;64.33;101513.84;5086102;28;20062;-57
2022/09/17 05:59:38;;;;;;;8.32;1.75;;;;;;;13.74;64.47;101515.84;5083201;28;20527;-57
2022/09/17 06:02:05;;;;;;;6.47;1.35;;;;;;;12.28;66.51;101524.59;5075702;28;20045;-52
2022/09/17 06:04:33;;;;;;;6.35;1.60;;;;;;;11.84;69.83;101510.50;5081403;28;20499;-56
2022/09/17 06:07:07;;;;;;;13.93;2.22;;;;;;;12.63;65.86;101511.19;5081201;28;20051;-54
2022/09/17 06:09:36;;;;;;;10.32;1.75;;;;;;;12.57;66.49;101521.53;5086647;28;20052;-53
2022/09/17 06:12:04;;;;;;;5.47;1.20;;;;;;;11.94;66.97;101523.31;5079801;28;20048;-51
2022/09/17 06:14:31;;;;;;;6.63;1.60;;;;;;;12.05;70.18;101525.56;5086419;28;20044;-52
2022/09/17 06:16:59;;;;;;;7.03;1.40;;;;;;;11.87;66.41;101536.69;5079333;28;20064;-49
2022/09/17 06:19:27;;;;;;;12.50;1.80;;;;;;;11.79;68.50;101540.94;5073652;28;20048;-53
2022/09/17 06:21:54;;;;;;;14.88;2.45;;;;;;;12.00;66.88;101531.19;5076234;28;20051;-50
2022/09/17 06:24:21;;;;;;;11.52;1.90;;;;;;;11.37;68.38;101540.22;5076513;28;20061;-52
2022/09/17 06:26:51;;;;;;;8.63;1.73;;;;;;;11.03;69.75;101552.28;5074758;28;20052;-50
2022/09/17 06:29:19;;;;;;;7.80;1.70;;;;;;;11.05;70.03;101552.78;5083239;28;20055;-50
2022/09/17 06:31:49;;;;;;;7.28;1.50;;;;;;;11.52;71.68;101551.03;5089667;28;20055;-52
2022/09/17 06:34:17;;;;;;;5.78;1.30;;;;;;;11.68;68.57;101544.19;5075939;28;20052;-54
2022/09/17 06:36:44;;;;;;;8.05;1.52;;;;;;;11.97;67.69;101553.91;5078424;28;20410;-53
2022/09/17 06:39:12;;;;;;;7.10;1.58;;;;;;;12.00;69.82;101549.69;5065889;28;20059;-54
2022/09/17 06:41:41;;;;;;;7.35;1.83;;;;;;;11.75;67.53;101561.97;5075853;28;20411;-52
2022/09/17 06:44:09;;;;;;;12.33;1.97;;;;;;;11.43;67.67;101561.09;5073912;28;20052;-52
2022/09/17 06:46:36;;;;;;;10.38;2.10;;;;;;;11.47;68.96;101557.44;5073238;28;20057;-52
2022/09/17 06:49:04;;;;;;;10.10;1.50;;;;;;;11.76;69.10;101558.13;5088629;28;20052;-52
2022/09/17 06:51:33;;;;;;;8.55;1.80;;;;;;;11.99;65.67;101559.09;5079732;28;20056;-55
2022/09/17 06:54:01;;;;;;;11.88;1.50;;;;;;;11.58;65.94;101569.13;5075932;28;20049;-49
2022/09/17 06:56:28;;;;;;;5.97;1.25;;;;;;;11.28;67.18;101571.22;5074455;28;20637;-52
2022/09/17 06:58:55;;;;;;;7.10;1.75;;;;;;;10.92;68.84;101561.78;5087027;28;20048;-53
2022/09/17 07:01:22;;;;;;;7.72;2.17;;;;;;;11.38;68.09;101568.31;5083738;28;20061;-50
2022/09/17 07:03:50;;;;;;;9.23;1.23;;;;;;;10.97;69.26;101571.91;5081834;28;20036;-51
2022/09/17 07:06:17;;;;;;;7.03;1.33;;;;;;;11.05;69.00;101569.31;5086282;28;20235;-49
2022/09/17 07:08:45;;;;;;;8.32;1.70;;;;;;;11.18;68.43;101573.28;5075213;28;20040;-53
2022/09/17 07:11:15;;;;;;;6.70;1.40;;;;;;;11.05;69.38;101568.53;5078744;28;20053;-49
2022/09/17 07:13:42;;;;;;;8.98;1.33;;;;;;;10.92;69.35;101563.72;5079450;28;20047;-55
2022/09/17 07:16:09;;;;;;;11.10;1.80;;;;;;;10.94;68.76;101575.28;5086806;28;20053;-51
2022/09/17 07:18:37;;;;;;;10.93;1.50;;;;;;;11.30;69.34;101574.50;5083298;28;20526;-53
2022/09/17 07:21:05;;;;;;;6.60;1.80;;;;;;;11.25;66.77;101566.31;5091289;28;20052;-53
2022/09/17 07:23:34;;;;;;;7.78;1.63;;;;;;;11.42;67.75;101559.47;5076932;28;20048;-51
2022/09/17 07:26:05;;;;;;;7.50;1.40;;;;;;;11.19;65.54;101563.91;5075641;28;20377;-54
2022/09/17 07:28:32;;;;;;;6.75;1.02;;;;;;;11.32;65.96;101552.13;5089561;28;20044;-54
2022/09/17 07:31:04;;;;;;;4.35;1.23;;;;;;;11.42;65.43;101553.94;5085177;28;20059;-53
2022/09/17 07:33:33;;;;;;;13.38;1.23;;;;;;;11.41;65.57;101561.38;5075515;28;20041;-51
2022/09/17 07:36:06;;;;;;;9.07;1.52;;;;;;;11.80;65.47;101561.09;5073236;28;20044;-55
2022/09/17 07:38:34;;;;;;;7.80;1.83;;;;;;;13.35;62.16;101546.94;5084857;28;20060;-54
2022/09/17 07:41:05;;;;;;;16.63;1.60;;;;;;;13.92;57.49;101556.38;5076882;28;20067;-52
2022/09/17 07:43:34;;;;;;;11.70;1.35;;;;;;;12.76;59.96;101560.94;5060944;28;20044;-55
2022/09/17 07:46:03;;;;;;;5.82;1.65;;;;;;;12.77;61.76;101557.06;5050857;28;20056;-56
2022/09/17 07:48:31;;;;;;;4.88;1.40;;;;;;;12.90;60.73;101556.22;5073946;28;20051;-56
2022/09/17 07:50:58;;;;;;;8.27;1.70;;;;;;;12.97;60.30;101553.88;5073030;28;20064;-52
2022/09/17 07:53:25;;;;;;;12.50;1.50;;;;;;;12.88;59.87;101552.97;5074798;28;20399;-55
2022/09/17 07:55:58;;;;;;;8.07;1.33;;;;;;;12.97;59.74;101550.31;5074269;28;20057;-51
2022/09/17 07:58:32;;;;;;;8.13;1.23;;;;;;;13.21;59.27;101551.72;5073278;28;20057;-54
2022/09/17 08:01:04;;;;;;;5.78;1.40;;;;;;;12.84;58.75;101554.72;5072485;28;20052;-55
2022/09/17 08:03:31;;;;;;;6.47;1.00;;;;;;;13.04;59.02;101556.28;5073706;28;20052;-52
2022/09/17 08:06:02;;;;;;;6.35;1.00;;;;;;;12.93;59.08;101549.28;5074692;28;20063;-53
2022/09/17 08:08:32;;;;;;;6.97;1.48;;;;;;;12.98;58.83;101558.28;5075871;28;20052;-56
2022/09/17 08:11:03;;;;;;;9.40;1.98;;;;;;;12.93;59.15;101555.63;5074028;28;20052;-54
2022/09/17 08:13:31;;;;;;;8.88;1.48;;;;;;;12.66;59.91;101569.44;5093602;28;20040;-54
2022/09/17 08:16:00;;;;;;;10.85;1.50;;;;;;;12.74;59.67;101565.97;5070881;28;20045;-53
2022/09/17 08:18:28;;;;;;;9.95;1.77;;;;;;;12.70;59.83;101569.66;5074337;28;20050;-56
2022/09/17 08:20:58;;;;;;;8.02;1.25;;;;;;;12.85;59.53;101567.41;5070520;28;20060;-53
2022/09/17 08:23:26;;;;;;;8.07;1.60;;;;;;;12.83;59.83;101564.13;5074548;28;20049;-55
2022/09/17 08:25:54;;;;;;;11.68;1.88;;;;;;;13.03;59.62;101565.69;5073691;28;20044;-54
2022/09/17 08:28:23;;;;;;;8.73;1.52;;;;;;;13.10;59.32;101561.38;5073341;28;20040;-55
2022/09/17 08:30:51;;;;;;;10.13;1.67;;;;;;;13.45;59.10;101573.59;5072798;28;20067;-57
2022/09/17 08:33:19;;;;;;;21.10;3.08;;;;;;;13.73;58.37;101571.53;5062640;28;20044;-56
2022/09/17 08:35:54;;;;;;;7.78;1.58;;;;;;;12.97;58.99;101572.44;5102715;28;20048;-57
2022/09/17 08:38:21;;;;;;;18.58;2.25;;;;;;;13.32;58.37;101574.44;5070284;28;20515;-55
2022/09/17 08:41:00;;;;;;;7.03;1.48;;;;;;;13.73;57.72;101571.53;5071457;28;20067;-54
2022/09/17 08:43:30;;;;;;;12.07;2.15;;;;;;;13.84;57.99;101575.72;5062075;28;20047;-57
2022/09/17 08:45:57;;;;;;;11.23;1.55;;;;;;;13.63;57.58;101582.88;5075531;28;20044;-54
2022/09/17 08:48:29;;;;;;;9.07;1.48;;;;;;;13.77;57.15;101578.94;5074628;28;20048;-56
2022/09/17 08:50:56;;;;;;;9.93;2.17;;;;;;;13.72;58.44;101587.34;5072583;28;20051;-58
2022/09/17 08:53:49;;;;;;;10.75;1.35;;;;;;;13.93;57.19;101602.31;5077779;28;20042;-54
2022/09/17 08:56:18;;;;;;;10.20;2.03;;;;;;;13.79;57.33;101596.03;5058051;28;20380;-56
2022/09/17 08:58:55;;;;;;;7.72;1.42;;;;;;;13.65;57.47;101583.38;5073535;28;20508;-56
2022/09/17 09:01:51;;;;;;;8.95;1.48;;;;;;;13.39;58.38;101605.25;5097312;28;20048;-55
2022/09/17 09:04:34;;;;;;;11.98;1.27;;;;;;;13.34;58.55;101597.06;5070265;28;20048;-51
2022/09/17 09:07:16;;;;;;;10.00;2.03;;;;;;;13.49;58.26;101608.63;5081310;28;20044;-55
2022/09/17 09:09:52;;;;;;;12.55;1.75;;;;;;;13.43;58.67;101611.81;5090462;28;20048;-50
2022/09/17 09:12:24;;;;;;;5.55;1.38;;;;;;;13.41;57.29;101606.59;5094999;28;20051;-54
2022/09/17 09:15:06;;;;;;;9.55;1.45;;;;;;;13.61;56.89;101610.03;5092133;28;20059;-54
2022/09/17 09:17:45;;;;;;;6.80;1.38;;;;;;;13.54;57.02;101611.31;5091632;28;20411;-49
2022/09/17 09:20:37;;;;;;;7.45;1.58;;;;;;;13.50;56.97;101592.84;5096061;28;20535;-55
2022/09/17 09:23:26;;;;;;;5.90;1.55;;;;;;;13.63;56.46;101594.78;5090675;28;20067;-54
2022/09/17 09:26:02;;;;;;;6.57;1.70;;;;;;;13.52;57.57;101602.50;5049097;28;20067;-56
2022/09/17 09:28:58;;;;;;;9.65;1.48;;;;;;;13.85;56.30;101608.63;5089862;28;20428;-57
2022/09/17 09:31:39;;;;;;;8.32;1.50;;;;;;;13.74;57.26;101600.88;5077442;28;20396;-55
2022/09/17 09:34:06;;;;;;;11.35;1.80;;;;;;;13.83;56.31;101594.28;5081259;28;20051;-53
2022/09/17 09:36:37;;;;;;;8.27;1.40;;;;;;;13.87;56.40;101602.78;5085499;28;20052;-54
2022/09/17 09:39:17;;;;;;;8.48;1.58;;;;;;;14.19;55.95;101608.88;5077955;28;20049;-54
2022/09/17 09:41:53;;;;;;;;;;;;;;;14.15;55.15;101607.88;5073367;28;20100;-56
2022/09/17 09:44:23;;;;;;;9.48;1.25;;;;;;;14.14;54.33;101608.22;5104784;28;19927;-56
2022/09/17 09:47:18;;;;;;;10.27;1.33;;;;;;;14.12;54.97;101607.69;5066894;28;20057;-54
2022/09/17 09:50:00;;;;;;;11.75;2.55;;;;;;;14.15;53.63;101607.06;5079426;28;20126;-55
2022/09/17 09:52:34;;;;;;;10.70;1.77;;;;;;;14.13;54.68;101606.56;5074463;28;20063;-57
2022/09/17 09:55:20;;;;;;;7.25;1.38;;;;;;;14.13;54.27;101609.31;5074179;28;20044;-55
2022/09/17 09:57:58;;;;;;;5.32;1.05;;;;;;;14.09;53.82;101606.38;5093675;28;20048;-52
2022/09/17 10:00:35;;;;;;;13.07;1.98;;;;;;;14.12;53.19;101627.09;5086386;28;20128;-56
2022/09/17 10:03:13;;;;;;;6.00;1.10;;;;;;;14.10;53.50;101596.94;5073139;28;20048;-57
2022/09/17 10:05:57;;;;;;;12.68;1.60;;;;;;;14.40;54.02;101593.38;5063993;28;20076;-55
2022/09/17 10:08:26;;;;;;;8.82;1.65;;;;;;;14.60;53.01;101601.16;5066561;28;20049;-55
2022/09/17 10:10:53;;;;;;;8.90;1.55;;;;;;;14.87;52.04;101605.66;5098684;28;20051;-56
2022/09/17 10:13:21;;;;;;;7.93;1.83;;;;;;;14.68;51.49;101597.59;5073179;28;20066;-58
2022/09/17 10:15:48;;;;;;;9.00;1.65;;;;;;;14.81;49.93;101601.41;5060818;28;20048;-56
2022/09/17 10:18:18;;;;;;;6.85;1.48;;;;;;;14.69;50.47;101606.75;5090325;28;20064;-56
2022/09/17 10:20:48;;;;;;;5.32;1.10;;;;;;;14.54;50.93;101607.97;5075270;28;20065;-57
2022/09/17 10:23:16;;;;;;;8.20;1.00;;;;;;;14.61;50.87;101601.97;5061147;28;20048;-56
2022/09/17 10:25:44;;;;;;;6.25;1.90;;;;;;;14.88;50.20;101599.00;5067330;28;20047;-55
2022/09/17 10:28:31;;;;;;;9.77;2.55;;;;;;;14.95;49.62;101621.56;5091031;28;20049;-55
2022/09/17 10:31:05;;;;;;;7.75;1.40;;;;;;;14.92;49.42;101624.97;5066397;28;20048;-60
2022/09/17 10:33:49;;;;;;;8.32;1.27;;;;;;;14.65;49.96;101598.25;5061172;28;20052;-56
2022/09/17 10:36:37;;;;;;;6.70;1.27;;;;;;;14.93;49.49;101601.63;5071320;28;20412;-62
2022/09/17 10:39:33;;;;;;;7.85;1.30;;;;;;;14.79;48.79;101591.78;5062369;28;20496;-62
2022/09/17 10:42:13;;;;;;;15.00;5.35;;;;;;;15.43;48.25;101586.28;5063731;28;20049;-63
2022/09/17 10:44:52;;;;;;;6.72;1.13;;;;;;;15.33;48.18;101583.78;5093327;28;20040;-61
2022/09/17 10:47:49;;;;;;;7.47;1.10;;;;;;;15.25;47.01;101584.59;5089650;28;20423;-62
2022/09/17 10:50:20;;;;;;;7.65;1.20;;;;;;;15.63;46.90;101587.59;5065543;28;20068;-63
2022/09/17 10:52:50;;;;;;;7.57;1.63;;;;;;;15.31;47.65;101599.94;5076475;28;20053;-62
2022/09/17 10:55:38;;;;;;;9.10;1.25;;;;;;;15.16;48.37;101592.06;5074518;28;20051;-62
2022/09/17 10:58:08;;;;;;;11.85;1.83;;;;;;;15.11;48.23;101583.91;5072814;28;20061;-62
2022/09/17 11:00:52;;;;;;;;;;;;;;;15.30;47.62;101578.88;5090284;28;20063;-63
2022/09/17 11:03:36;;;;;;;5.28;0.90;;;;;;;15.32;46.95;101576.59;5081356;28;19921;-63
2022/09/17 11:06:09;;;;;;;7.13;1.40;;;;;;;15.45;45.46;101578.44;5079096;28;20509;-62
2022/09/17 11:09:19;;;;;;;6.95;0.90;;;;;;;15.30;45.54;101576.09;5092889;28;20071;-64
2022/09/17 11:12:20;;;;;;;6.05;1.20;;;;;;;15.33;44.44;101572.69;5066734;28;20395;-64
2022/09/17 11:15:01;;;;;;;8.57;1.40;;;;;;;15.80;45.01;101551.47;5076681;28;20045;-60
2022/09/17 11:17:35;;;;;;;8.05;1.20;;;;;;;16.07;43.30;101576.16;5074627;28;20519;-62
2022/09/17 11:20:31;;;;;;;7.32;1.50;;;;;;;15.89;43.73;101563.41;5106901;28;20048;-61
2022/09/17 11:23:20;;;;;;;7.88;1.90;;;;;;;15.59;43.94;101556.06;5059210;28;20064;-62
2022/09/17 11:26:07;;;;;;;8.85;1.20;;;;;;;15.33;43.50;101556.03;5074395;28;20044;-62
2022/09/17 11:28:46;;;;;;;5.32;1.05;;;;;;;15.60;42.18;101552.94;5073365;28;20699;-63
2022/09/17 11:31:35;;;;;;;4.30;1.00;;;;;;;15.58;42.14;101544.16;5072797;28;20063;-62
2022/09/17 11:34:17;;;;;;;7.50;1.15;;;;;;;15.78;41.78;101545.44;5069964;28;20049;-62
2022/09/17 11:37:09;;;;;;;7.05;1.13;;;;;;;15.91;42.14;101552.78;5079373;28;20522;-62
2022/09/17 11:39:40;;;;;;;5.22;1.20;;;;;;;15.79;40.94;101542.31;5068394;28;20045;-62
2022/09/17 11:42:12;;;;;;;5.15;1.10;;;;;;;15.78;41.35;101542.66;5074476;28;20044;-62
2022/09/17 11:44:49;;;;;;;8.38;1.17;;;;;;;15.52;40.46;101542.66;5094333;28;20052;-63
2022/09/17 11:47:21;;;;;;;6.72;0.90;;;;;;;15.81;40.32;101546.75;5076538;28;20404;-62
2022/09/17 11:49:51;;;;;;;7.55;1.65;;;;;;;16.12;40.65;101539.00;5074429;28;20048;-63